sensor_id;sensor_type;location;lat;lon;timestamp;pressure;altitude;pressure_sealevel;temperature;humidity
33151;BME280;19508;42.578;23.416;2023-04-06T00:01:26;93399.34;;;-0.09;73.60
33151;BME280;19508;42.578;23.416;2023-04-06T00:03:51;93389.94;;;-0.18;73.69
33151;BME280;19508;42.578;23.416;2023-04-06T00:06:16;93391.56;;;-0.17;73.87
33151;BME280;19508;42.578;23.416;2023-04-06T00:08:42;93385.09;;;-0.15;73.36
33151;BME280;19508;42.578;23.416;2023-04-06T00:11:08;93382.63;;;-0.23;73.52
33151;BME280;19508;42.578;23.416;2023-04-06T00:13:33;93381.41;;;-0.20;73.73
33151;BME280;19508;42.578;23.416;2023-04-06T00:15:59;93381.81;;;-0.23;73.41
33151;BME280;19508;42.578;23.416;2023-04-06T00:18:24;93371.16;;;-0.37;73.83
33151;BME280;19508;42.578;23.416;2023-04-06T00:20:50;93375.09;;;-0.19;74.04
33151;BME280;19508;42.578;23.416;2023-04-06T00:23:16;93363.31;;;-0.17;73.67
33151;BME280;19508;42.578;23.416;2023-04-06T00:25:41;93366.94;;;-0.18;73.44
33151;BME280;19508;42.578;23.416;2023-04-06T00:28:07;93368.19;;;-0.14;73.42
33151;BME280;19508;42.578;23.416;2023-04-06T00:30:33;93367.97;;;-0.25;73.97
33151;BME280;19508;42.578;23.416;2023-04-06T00:32:58;93371.59;;;-0.26;73.95
33151;BME280;19508;42.578;23.416;2023-04-06T00:35:23;93363.06;;;-0.29;73.88
33151;BME280;19508;42.578;23.416;2023-04-06T00:37:49;93362.47;;;-0.24;73.85
33151;BME280;19508;42.578;23.416;2023-04-06T00:40:15;93372.00;;;-0.30;74.51
33151;BME280;19508;42.578;23.416;2023-04-06T00:42:41;93367.13;;;-0.33;73.82
33151;BME280;19508;42.578;23.416;2023-04-06T00:45:07;93368.31;;;-0.35;74.29
33151;BME280;19508;42.578;23.416;2023-04-06T00:47:32;93373.63;;;-0.29;73.78
33151;BME280;19508;42.578;23.416;2023-04-06T00:49:58;93369.13;;;-0.35;73.89
33151;BME280;19508;42.578;23.416;2023-04-06T00:52:24;93375.84;;;-0.39;74.32
33151;BME280;19508;42.578;23.416;2023-04-06T00:54:49;93361.19;;;-0.35;73.84
33151;BME280;19508;42.578;23.416;2023-04-06T00:57:16;93361.78;;;-0.46;73.91
33151;BME280;19508;42.578;23.416;2023-04-06T00:59:42;93364.41;;;-0.46;74.28
33151;BME280;19508;42.578;23.416;2023-04-06T01:02:08;93362.63;;;-0.39;74.29
33151;BME280;19508;42.578;23.416;2023-04-06T01:04:33;93362.25;;;-0.29;74.04
33151;BME280;19508;42.578;23.416;2023-04-06T01:07:00;93366.72;;;-0.30;74.19
33151;BME280;19508;42.578;23.416;2023-04-06T01:09:28;93365.09;;;-0.31;73.85
33151;BME280;19508;42.578;23.416;2023-04-06T01:11:54;93355.34;;;-0.23;73.88
33151;BME280;19508;42.578;23.416;2023-04-06T01:14:21;93354.09;;;-0.28;73.82
33151;BME280;19508;42.578;23.416;2023-04-06T01:16:46;93351.63;;;-0.36;73.64
33151;BME280;19508;42.578;23.416;2023-04-06T01:19:12;93341.41;;;-0.52;75.08
33151;BME280;19508;42.578;23.416;2023-04-06T01:21:38;93342.66;;;-0.35;74.63
33151;BME280;19508;42.578;23.416;2023-04-06T01:24:04;93341.28;;;-0.31;74.15
33151;BME280;19508;42.578;23.416;2023-04-06T01:26:32;93346.38;;;-0.22;73.95
33151;BME280;19508;42.578;23.416;2023-04-06T01:28:58;93348.25;;;-0.16;73.66
33151;BME280;19508;42.578;23.416;2023-04-06T01:31:23;93343.16;;;-0.11;73.93
33151;BME280;19508;42.578;23.416;2023-04-06T01:33:49;93349.69;;;-0.07;73.97
33151;BME280;19508;42.578;23.416;2023-04-06T01:36:16;93348.06;;;-0.08;73.66
33151;BME280;19508;42.578;23.416;2023-04-06T01:38:42;93345.00;;;-0.05;73.44
33151;BME280;19508;42.578;23.416;2023-04-06T01:41:08;93350.69;;;-0.02;72.99
33151;BME280;19508;42.578;23.416;2023-04-06T01:43:34;93337.47;;;-0.02;72.96
33151;BME280;19508;42.578;23.416;2023-04-06T01:45:59;93330.09;;;-0.33;73.31
33151;BME280;19508;42.578;23.416;2023-04-06T01:48:26;93331.34;;;-0.22;73.36
33151;BME280;19508;42.578;23.416;2023-04-06T01:50:52;93336.56;;;-0.35;73.70
33151;BME280;19508;42.578;23.416;2023-04-06T01:53:17;93339.47;;;-0.23;73.97
33151;BME280;19508;42.578;23.416;2023-04-06T01:55:42;93344.75;;;-0.23;73.73
33151;BME280;19508;42.578;23.416;2023-04-06T01:58:08;93338.63;;;-0.31;73.24
33151;BME280;19508;42.578;23.416;2023-04-06T02:00:33;93331.66;;;-0.45;73.47
33151;BME280;19508;42.578;23.416;2023-04-06T02:02:59;93330.66;;;-0.37;73.97
33151;BME280;19508;42.578;23.416;2023-04-06T02:05:25;93338.59;;;-0.37;74.17
33151;BME280;19508;42.578;23.416;2023-04-06T02:07:50;93338.03;;;-0.33;74.33
33151;BME280;19508;42.578;23.416;2023-04-06T02:10:16;93334.97;;;-0.30;74.11
33151;BME280;19508;42.578;23.416;2023-04-06T02:12:42;93322.91;;;-0.45;74.01
33151;BME280;19508;42.578;23.416;2023-04-06T02:15:08;93332.91;;;-0.41;74.92
33151;BME280;19508;42.578;23.416;2023-04-06T02:17:33;93332.91;;;-0.41;74.51
33151;BME280;19508;42.578;23.416;2023-04-06T02:19:58;93325.19;;;-0.36;74.53
33151;BME280;19508;42.578;23.416;2023-04-06T02:22:24;93329.25;;;-0.26;74.54
33151;BME280;19508;42.578;23.416;2023-04-06T02:24:49;93328.47;;;-0.20;74.30
33151;BME280;19508;42.578;23.416;2023-04-06T02:27:15;93327.88;;;-0.22;73.89
33151;BME280;19508;42.578;23.416;2023-04-06T02:29:41;93316.28;;;-0.21;74.03
33151;BME280;19508;42.578;23.416;2023-04-06T02:32:06;93326.84;;;-0.21;74.05
33151;BME280;19508;42.578;23.416;2023-04-06T02:34:31;93315.47;;;-0.15;73.96
33151;BME280;19508;42.578;23.416;2023-04-06T02:36:57;93328.09;;;-0.04;73.60
33151;BME280;19508;42.578;23.416;2023-04-06T02:39:22;93319.97;;;-0.03;73.43
33151;BME280;19508;42.578;23.416;2023-04-06T02:41:48;93319.97;;;-0.03;73.75
33151;BME280;19508;42.578;23.416;2023-04-06T02:44:13;93324.84;;;-0.06;73.98
33151;BME280;19508;42.578;23.416;2023-04-06T02:46:39;93314.47;;;-0.01;73.51
33151;BME280;19508;42.578;23.416;2023-04-06T02:49:05;93317.13;;;0.06;73.46
33151;BME280;19508;42.578;23.416;2023-04-06T02:51:30;93325.47;;;-0.04;73.79
33151;BME280;19508;42.578;23.416;2023-04-06T02:53:56;93315.09;;;0.14;73.22
33151;BME280;19508;42.578;23.416;2023-04-06T02:56:21;93317.75;;;0.14;72.72
33151;BME280;19508;42.578;23.416;2023-04-06T02:58:47;93315.94;;;0.21;72.56
33151;BME280;19508;42.578;23.416;2023-04-06T03:01:12;93323.88;;;0.21;72.45
33151;BME280;19508;42.578;23.416;2023-04-06T03:03:38;93325.31;;;0.31;72.58
33151;BME280;19508;42.578;23.416;2023-04-06T03:06:03;93313.47;;;0.13;72.21
33151;BME280;19508;42.578;23.416;2023-04-06T03:08:29;93320.81;;;0.18;72.29
33151;BME280;19508;42.578;23.416;2023-04-06T03:10:55;93325.09;;;0.12;72.81
33151;BME280;19508;42.578;23.416;2023-04-06T03:13:21;93311.84;;;0.12;72.76
33151;BME280;19508;42.578;23.416;2023-04-06T03:15:46;93323.66;;;0.16;72.94
33151;BME280;19508;42.578;23.416;2023-04-06T03:18:12;93325.09;;;0.12;72.74
33151;BME280;19508;42.578;23.416;2023-04-06T03:20:38;93325.69;;;0.14;72.87
33151;BME280;19508;42.578;23.416;2023-04-06T03:23:03;93326.50;;;0.08;72.92
33151;BME280;19508;42.578;23.416;2023-04-06T03:25:29;93326.91;;;0.12;72.86
33151;BME280;19508;42.578;23.416;2023-04-06T03:27:55;93317.56;;;0.09;72.67
33151;BME280;19508;42.578;23.416;2023-04-06T03:30:21;93323.66;;;0.03;73.09
33151;BME280;19508;42.578;23.416;2023-04-06T03:32:46;93317.94;;;0.06;73.61
33151;BME280;19508;42.578;23.416;2023-04-06T03:35:12;93319.97;;;-0.03;73.66
33151;BME280;19508;42.578;23.416;2023-04-06T03:37:37;93318.78;;;0.13;73.49
33151;BME280;19508;42.578;23.416;2023-04-06T03:40:03;93319.16;;;0.17;73.26
33151;BME280;19508;42.578;23.416;2023-04-06T03:42:29;93321.03;;;0.10;73.25
33151;BME280;19508;42.578;23.416;2023-04-06T03:44:56;93318.56;;;0.21;72.97
33151;BME280;19508;42.578;23.416;2023-04-06T03:47:21;93315.69;;;0.16;72.54
33151;BME280;19508;42.578;23.416;2023-04-06T03:49:47;93317.75;;;0.14;72.93
33151;BME280;19508;42.578;23.416;2023-04-06T03:52:12;93320.81;;;0.11;73.04
33151;BME280;19508;42.578;23.416;2023-04-06T03:54:38;93312.44;;;0.14;73.13
33151;BME280;19508;42.578;23.416;2023-04-06T03:57:04;93314.09;;;0.22;72.87
33151;BME280;19508;42.578;23.416;2023-04-06T03:59:29;93316.75;;;0.28;72.70
33151;BME280;19508;42.578;23.416;2023-04-06T04:01:55;93314.91;;;0.22;72.81
33151;BME280;19508;42.578;23.416;2023-04-06T04:04:21;93315.53;;;0.31;72.89
33151;BME280;19508;42.578;23.416;2023-04-06T04:06:47;93310.84;;;0.40;72.46
33151;BME280;19508;42.578;23.416;2023-04-06T04:09:13;93311.44;;;0.48;72.25
33151;BME280;19508;42.578;23.416;2023-04-06T04:11:38;93320.63;;;0.52;72.15
33151;BME280;19508;42.578;23.416;2023-04-06T04:14:03;93312.25;;;0.55;71.86
33151;BME280;19508;42.578;23.416;2023-04-06T04:16:29;93316.13;;;0.66;71.67
33151;BME280;19508;42.578;23.416;2023-04-06T04:18:54;93317.94;;;0.59;71.95
33151;BME280;19508;42.578;23.416;2023-04-06T04:21:20;93311.44;;;0.62;72.02
33151;BME280;19508;42.578;23.416;2023-04-06T04:23:45;93314.06;;;0.68;72.02
33151;BME280;19508;42.578;23.416;2023-04-06T04:26:11;93320.81;;;0.77;71.53
33151;BME280;19508;42.578;23.416;2023-04-06T04:28:37;93318.34;;;0.82;71.68
33151;BME280;19508;42.578;23.416;2023-04-06T04:31:02;93313.44;;;0.93;71.62
33151;BME280;19508;42.578;23.416;2023-04-06T04:33:27;93321.59;;;0.84;71.88
33151;BME280;19508;42.578;23.416;2023-04-06T04:35:53;93321.97;;;1.01;71.89
33151;BME280;19508;42.578;23.416;2023-04-06T04:38:18;93319.91;;;1.10;71.30
33151;BME280;19508;42.578;23.416;2023-04-06T04:40:44;93310.91;;;1.18;70.72
33151;BME280;19508;42.578;23.416;2023-04-06T04:43:09;93320.28;;;1.27;70.50
33151;BME280;19508;42.578;23.416;2023-04-06T04:45:35;93322.47;;;1.36;70.51
33151;BME280;19508;42.578;23.416;2023-04-06T04:48:00;93325.56;;;1.40;70.16
33151;BME280;19508;42.578;23.416;2023-04-06T04:50:25;93321.00;;;1.54;69.40
33151;BME280;19508;42.578;23.416;2023-04-06T04:52:51;93310.97;;;1.62;69.46
33151;BME280;19508;42.578;23.416;2023-04-06T04:55:16;93304.59;;;1.70;69.33
33151;BME280;19508;42.578;23.416;2023-04-06T04:57:42;93313.44;;;1.95;68.49
33151;BME280;19508;42.578;23.416;2023-04-06T05:00:08;93314.19;;;2.09;68.62
33151;BME280;19508;42.578;23.416;2023-04-06T05:02:34;93317.13;;;2.26;68.03
33151;BME280;19508;42.578;23.416;2023-04-06T05:04:59;93316.03;;;2.40;67.16
33151;BME280;19508;42.578;23.416;2023-04-06T05:07:25;93317.38;;;2.49;67.02
33151;BME280;19508;42.578;23.416;2023-04-06T05:09:50;93314.78;;;2.68;66.36
33151;BME280;19508;42.578;23.416;2023-04-06T05:12:16;93311.41;;;2.79;65.04
33151;BME280;19508;42.578;23.416;2023-04-06T05:14:41;93322.63;;;2.81;64.31
33151;BME280;19508;42.578;23.416;2023-04-06T05:17:07;93318.38;;;2.98;63.50
33151;BME280;19508;42.578;23.416;2023-04-06T05:19:33;93327.69;;;3.07;63.33
33151;BME280;19508;42.578;23.416;2023-04-06T05:21:58;93322.81;;;3.04;62.51
33151;BME280;19508;42.578;23.416;2023-04-06T05:24:23;93323.59;;;3.11;61.99
33151;BME280;19508;42.578;23.416;2023-04-06T05:26:49;93326.47;;;3.10;61.98
33151;BME280;19508;42.578;23.416;2023-04-06T05:29:15;93325.78;;;2.96;61.44
33151;BME280;19508;42.578;23.416;2023-04-06T05:31:41;93315.13;;;2.96;61.02
33151;BME280;19508;42.578;23.416;2023-04-06T05:34:07;93312.66;;;3.20;60.45
33151;BME280;19508;42.578;23.416;2023-04-06T05:36:34;93311.31;;;3.10;60.98
33151;BME280;19508;42.578;23.416;2023-04-06T05:39:00;93306.75;;;3.54;60.98
33151;BME280;19508;42.578;23.416;2023-04-06T05:41:25;93313.53;;;3.68;58.78
33151;BME280;19508;42.578;23.416;2023-04-06T05:43:51;93312.47;;;3.88;59.42
33151;BME280;19508;42.578;23.416;2023-04-06T05:46:16;93304.19;;;3.96;57.36
33151;BME280;19508;42.578;23.416;2023-04-06T05:48:42;93295.03;;;3.74;56.57
33151;BME280;19508;42.578;23.416;2023-04-06T05:51:07;93305.84;;;3.79;57.64
33151;BME280;19508;42.578;23.416;2023-04-06T05:53:33;93291.53;;;3.25;60.04
33151;BME280;19508;42.578;23.416;2023-04-06T05:56:02;93289.88;;;3.24;60.54
33151;BME280;19508;42.578;23.416;2023-04-06T05:58:28;93285.59;;;3.41;59.65
33151;BME280;19508;42.578;23.416;2023-04-06T06:01:00;93289.06;;;3.23;60.94
33151;BME280;19508;42.578;23.416;2023-04-06T06:03:25;93289.81;;;3.49;60.47
33151;BME280;19508;42.578;23.416;2023-04-06T06:05:51;93280.84;;;3.06;61.36
33151;BME280;19508;42.578;23.416;2023-04-06T06:08:17;93284.09;;;2.90;61.64
33151;BME280;19508;42.578;23.416;2023-04-06T06:10:42;93285.94;;;2.90;61.88
33151;BME280;19508;42.578;23.416;2023-04-06T06:13:08;93291.78;;;2.98;62.35
33151;BME280;19508;42.578;23.416;2023-04-06T06:15:33;93284.59;;;3.42;61.00
33151;BME280;19508;42.578;23.416;2023-04-06T06:17:59;93286.44;;;4.32;59.58
33151;BME280;19508;42.578;23.416;2023-04-06T06:20:25;93297.25;;;4.48;57.48
33151;BME280;19508;42.578;23.416;2023-04-06T06:22:51;93288.28;;;4.96;55.59
33151;BME280;19508;42.578;23.416;2023-04-06T06:25:17;93282.31;;;5.53;54.40
33151;BME280;19508;42.578;23.416;2023-04-06T06:27:42;93277.09;;;5.46;53.65
33151;BME280;19508;42.578;23.416;2023-04-06T06:30:08;93274.41;;;6.27;52.51
33151;BME280;19508;42.578;23.416;2023-04-06T06:32:33;93276.88;;;6.00;51.44
33151;BME280;19508;42.578;23.416;2023-04-06T06:34:59;93283.22;;;6.10;52.04
33151;BME280;19508;42.578;23.416;2023-04-06T06:37:24;93280.22;;;6.69;51.13
33151;BME280;19508;42.578;23.416;2023-04-06T06:39:50;93280.22;;;6.69;51.27
33151;BME280;19508;42.578;23.416;2023-04-06T06:42:15;93275.41;;;6.37;51.07
33151;BME280;19508;42.578;23.416;2023-04-06T06:44:41;93272.91;;;6.47;50.75
33151;BME280;19508;42.578;23.416;2023-04-06T06:47:06;93276.34;;;6.76;51.07
33151;BME280;19508;42.578;23.416;2023-04-06T06:49:31;93279.56;;;6.62;51.03
33151;BME280;19508;42.578;23.416;2023-04-06T06:51:57;93279.59;;;6.95;49.72
33151;BME280;19508;42.578;23.416;2023-04-06T06:54:22;93284.84;;;6.90;50.21
33151;BME280;19508;42.578;23.416;2023-04-06T06:56:48;93279.47;;;6.57;51.10
33151;BME280;19508;42.578;23.416;2023-04-06T06:59:13;93273.25;;;6.85;52.25
33151;BME280;19508;42.578;23.416;2023-04-06T07:01:38;93270.66;;;6.73;49.86
33151;BME280;19508;42.578;23.416;2023-04-06T07:04:04;93266.09;;;6.90;50.02
33151;BME280;19508;42.578;23.416;2023-04-06T07:06:29;93261.31;;;7.09;48.77
33151;BME280;19508;42.578;23.416;2023-04-06T07:08:55;93258.88;;;7.07;50.12
33151;BME280;19508;42.578;23.416;2023-04-06T07:11:20;93266.69;;;7.48;48.93
33151;BME280;19508;42.578;23.416;2023-04-06T07:13:46;93263.84;;;8.25;46.27
33151;BME280;19508;42.578;23.416;2023-04-06T07:16:11;93266.75;;;7.75;47.79
33151;BME280;19508;42.578;23.416;2023-04-06T07:18:37;93263.16;;;8.94;45.81
33151;BME280;19508;42.578;23.416;2023-04-06T07:21:02;93267.47;;;8.95;45.69
33151;BME280;19508;42.578;23.416;2023-04-06T07:23:28;93261.69;;;8.76;46.24
33151;BME280;19508;42.578;23.416;2023-04-06T07:25:53;93253.91;;;9.12;44.67
33151;BME280;19508;42.578;23.416;2023-04-06T07:28:19;93246.06;;;9.05;43.79
33151;BME280;19508;42.578;23.416;2023-04-06T07:30:45;93261.25;;;8.57;45.00
33151;BME280;19508;42.578;23.416;2023-04-06T07:33:11;93253.50;;;8.93;44.35
33151;BME280;19508;42.578;23.416;2023-04-06T07:35:36;93259.56;;;8.51;45.99
33151;BME280;19508;42.578;23.416;2023-04-06T07:38:02;93259.03;;;8.27;45.66
33151;BME280;19508;42.578;23.416;2023-04-06T07:40:28;93249.31;;;9.12;44.93
33151;BME280;19508;42.578;23.416;2023-04-06T07:42:53;93252.00;;;9.07;43.74
33151;BME280;19508;42.578;23.416;2023-04-06T07:45:19;93247.50;;;8.81;46.06
33151;BME280;19508;42.578;23.416;2023-04-06T07:47:45;93253.09;;;9.11;44.68
33151;BME280;19508;42.578;23.416;2023-04-06T07:50:11;93240.59;;;9.84;43.29
33151;BME280;19508;42.578;23.416;2023-04-06T07:52:37;93249.78;;;9.99;43.15
33151;BME280;19508;42.578;23.416;2023-04-06T07:55:03;93244.41;;;9.94;42.78
33151;BME280;19508;42.578;23.416;2023-04-06T07:57:29;93248.47;;;9.44;43.42
33151;BME280;19508;42.578;23.416;2023-04-06T07:59:55;93258.28;;;9.23;43.28
33151;BME280;19508;42.578;23.416;2023-04-06T08:02:21;93244.47;;;9.51;42.54
33151;BME280;19508;42.578;23.416;2023-04-06T08:04:47;93256.53;;;10.01;41.46
33151;BME280;19508;42.578;23.416;2023-04-06T08:07:13;93245.16;;;10.52;42.01
33151;BME280;19508;42.578;23.416;2023-04-06T08:09:38;93241.38;;;10.53;40.62
33151;BME280;19508;42.578;23.416;2023-04-06T08:12:04;93248.34;;;10.43;42.15
33151;BME280;19508;42.578;23.416;2023-04-06T08:14:29;93252.72;;;10.85;40.55
33151;BME280;19508;42.578;23.416;2023-04-06T08:16:55;93247.78;;;10.26;41.57
33151;BME280;19508;42.578;23.416;2023-04-06T08:19:20;93251.28;;;8.85;42.27
33151;BME280;19508;42.578;23.416;2023-04-06T08:21:46;93252.69;;;8.60;45.84
33151;BME280;19508;42.578;23.416;2023-04-06T08:24:12;93254.50;;;8.87;46.69
33151;BME280;19508;42.578;23.416;2023-04-06T08:26:38;93249.13;;;8.87;45.49
33151;BME280;19508;42.578;23.416;2023-04-06T08:29:04;93239.13;;;10.24;43.50
33151;BME280;19508;42.578;23.416;2023-04-06T08:31:33;93247.16;;;10.09;40.24
33151;BME280;19508;42.578;23.416;2023-04-06T08:33:58;93246.19;;;10.40;40.38
33151;BME280;19508;42.578;23.416;2023-04-06T08:36:24;93242.91;;;10.23;40.65
33151;BME280;19508;42.578;23.416;2023-04-06T08:38:49;93253.00;;;9.38;41.57
33151;BME280;19508;42.578;23.416;2023-04-06T08:41:15;93233.59;;;9.26;42.50
33151;BME280;19508;42.578;23.416;2023-04-06T08:43:47;93236.06;;;9.38;41.45
33151;BME280;19508;42.578;23.416;2023-04-06T08:46:14;93247.66;;;9.43;42.90
33151;BME280;19508;42.578;23.416;2023-04-06T08:48:41;93240.44;;;9.54;42.15
33151;BME280;19508;42.578;23.416;2023-04-06T08:51:08;93242.88;;;9.55;41.91
33151;BME280;19508;42.578;23.416;2023-04-06T08:53:34;93244.91;;;8.96;42.42
33151;BME280;19508;42.578;23.416;2023-04-06T08:56:00;93247.09;;;8.13;42.48
33151;BME280;19508;42.578;23.416;2023-04-06T08:58:28;93245.97;;;7.21;45.29
33151;BME280;19508;42.578;23.416;2023-04-06T09:00:55;93235.91;;;7.28;45.44
33151;BME280;19508;42.578;23.416;2023-04-06T09:03:22;93240.94;;;7.08;45.86
33151;BME280;19508;42.578;23.416;2023-04-06T09:05:47;93239.50;;;7.00;47.17
33151;BME280;19508;42.578;23.416;2023-04-06T09:08:13;93240.28;;;7.18;46.80
33151;BME280;19508;42.578;23.416;2023-04-06T09:10:42;93230.59;;;6.78;48.06
33151;BME280;19508;42.578;23.416;2023-04-06T09:13:08;93234.06;;;7.34;47.44
33151;BME280;19508;42.578;23.416;2023-04-06T09:15:34;93246.19;;;8.29;45.11
33151;BME280;19508;42.578;23.416;2023-04-06T09:18:01;93230.22;;;9.51;43.10
33151;BME280;19508;42.578;23.416;2023-04-06T09:20:27;93237.75;;;10.22;41.56
33151;BME280;19508;42.578;23.416;2023-04-06T09:22:54;93237.06;;;10.67;39.96
33151;BME280;19508;42.578;23.416;2023-04-06T09:25:22;93230.06;;;11.17;38.58
33151;BME280;19508;42.578;23.416;2023-04-06T09:28:02;93233.66;;;9.99;39.98
33151;BME280;19508;42.578;23.416;2023-04-06T09:30:28;93228.00;;;9.38;41.14
33151;BME280;19508;42.578;23.416;2023-04-06T09:32:55;93225.47;;;9.68;41.43
33151;BME280;19508;42.578;23.416;2023-04-06T09:35:22;93224.63;;;10.30;40.57
33151;BME280;19508;42.578;23.416;2023-04-06T09:37:50;93222.78;;;9.73;40.64
33151;BME280;19508;42.578;23.416;2023-04-06T09:40:16;93221.41;;;10.33;39.33
33151;BME280;19508;42.578;23.416;2023-04-06T09:42:45;93230.44;;;9.92;40.48
33151;BME280;19508;42.578;23.416;2023-04-06T09:45:12;93218.66;;;8.66;41.64
33151;BME280;19508;42.578;23.416;2023-04-06T09:47:43;93231.19;;;8.33;43.60
33151;BME280;19508;42.578;23.416;2023-04-06T09:50:10;93236.78;;;8.54;41.42
33151;BME280;19508;42.578;23.416;2023-04-06T09:52:49;93222.69;;;8.68;42.21
33151;BME280;19508;42.578;23.416;2023-04-06T09:55:25;93233.19;;;8.43;43.15
33151;BME280;19508;42.578;23.416;2023-04-06T09:58:10;93232.06;;;8.12;43.58
33151;BME280;19508;42.578;23.416;2023-04-06T10:00:47;93223.81;;;7.48;44.47
33151;BME280;19508;42.578;23.416;2023-04-06T10:05:57;93223.88;;;7.31;45.44
33151;BME280;19508;42.578;23.416;2023-04-06T10:08:30;93230.66;;;7.82;45.11
33151;BME280;19508;42.578;23.416;2023-04-06T10:10:58;93222.00;;;7.97;42.84
33151;BME280;19508;42.578;23.416;2023-04-06T10:13:24;93216.19;;;8.05;43.49
33151;BME280;19508;42.578;23.416;2023-04-06T10:15:51;93222.28;;;8.50;44.01
33151;BME280;19508;42.578;23.416;2023-04-06T10:18:17;93213.09;;;9.15;40.72
33151;BME280;19508;42.578;23.416;2023-04-06T10:20:49;93200.00;;;9.28;40.15
33151;BME280;19508;42.578;23.416;2023-04-06T10:23:32;93216.25;;;8.69;41.99
33151;BME280;19508;42.578;23.416;2023-04-06T10:26:00;93205.72;;;8.95;41.04
33151;BME280;19508;42.578;23.416;2023-04-06T10:28:30;93201.63;;;9.24;42.22
33151;BME280;19508;42.578;23.416;2023-04-06T10:31:02;93202.47;;;8.93;42.77
33151;BME280;19508;42.578;23.416;2023-04-06T10:33:29;93200.50;;;9.20;41.30
33151;BME280;19508;42.578;23.416;2023-04-06T10:35:55;93218.44;;;8.40;41.28
33151;BME280;19508;42.578;23.416;2023-04-06T10:38:21;93217.06;;;8.38;42.40
33151;BME280;19508;42.578;23.416;2023-04-06T10:41:06;93204.16;;;9.04;41.39
33151;BME280;19508;42.578;23.416;2023-04-06T10:43:37;93214.44;;;8.80;42.66
33151;BME280;19508;42.578;23.416;2023-04-06T10:46:05;93216.47;;;7.82;43.55
33151;BME280;19508;42.578;23.416;2023-04-06T10:48:44;93215.31;;;8.27;43.69
33151;BME280;19508;42.578;23.416;2023-04-06T10:51:15;93204.78;;;8.20;44.35
33151;BME280;19508;42.578;23.416;2023-04-06T10:53:45;93185.13;;;8.68;44.11
33151;BME280;19508;42.578;23.416;2023-04-06T10:56:17;93185.84;;;8.59;43.93
33151;BME280;19508;42.578;23.416;2023-04-06T10:58:50;93193.00;;;9.75;42.98
33151;BME280;19508;42.578;23.416;2023-04-06T11:01:17;93192.56;;;10.18;40.74
33151;BME280;19508;42.578;23.416;2023-04-06T11:03:47;93189.69;;;9.57;40.67
33151;BME280;19508;42.578;23.416;2023-04-06T11:06:23;93195.41;;;9.76;40.33
33151;BME280;19508;42.578;23.416;2023-04-06T11:08:50;93198.56;;;9.58;41.01
33151;BME280;19508;42.578;23.416;2023-04-06T11:11:18;93180.63;;;9.21;41.37
33151;BME280;19508;42.578;23.416;2023-04-06T11:13:49;93192.13;;;9.64;41.23
33151;BME280;19508;42.578;23.416;2023-04-06T11:16:20;93178.53;;;9.28;40.92
33151;BME280;19508;42.578;23.416;2023-04-06T11:18:59;93194.25;;;9.62;42.49
33151;BME280;19508;42.578;23.416;2023-04-06T11:21:54;93186.22;;;9.10;41.71
33151;BME280;19508;42.578;23.416;2023-04-06T11:24:24;93175.06;;;9.33;42.08
33151;BME280;19508;42.578;23.416;2023-04-06T11:26:56;93182.97;;;9.08;41.81
33151;BME280;19508;42.578;23.416;2023-04-06T11:29:26;93182.88;;;9.40;41.27
33151;BME280;19508;42.578;23.416;2023-04-06T11:32:03;93176.44;;;9.41;41.51
33151;BME280;19508;42.578;23.416;2023-04-06T11:34:30;93180.41;;;8.86;42.60
33151;BME280;19508;42.578;23.416;2023-04-06T11:37:01;93175.59;;;8.88;42.08
33151;BME280;19508;42.578;23.416;2023-04-06T11:39:38;93174.69;;;8.72;43.72
33151;BME280;19508;42.578;23.416;2023-04-06T11:42:03;93194.31;;;8.77;43.62
33151;BME280;19508;42.578;23.416;2023-04-06T11:46:56;93195.28;;;7.58;45.33
33151;BME280;19508;42.578;23.416;2023-04-06T11:49:26;93193.44;;;7.86;44.86
33151;BME280;19508;42.578;23.416;2023-04-06T11:51:52;93191.59;;;7.86;44.64
33151;BME280;19508;42.578;23.416;2023-04-06T11:54:17;93190.81;;;7.64;44.87
33151;BME280;19508;42.578;23.416;2023-04-06T11:56:46;93186.97;;;7.82;45.22
33151;BME280;19508;42.578;23.416;2023-04-06T11:59:11;93187.78;;;7.60;45.06
33151;BME280;19508;42.578;23.416;2023-04-06T12:01:45;93202.31;;;7.64;45.31
33151;BME280;19508;42.578;23.416;2023-04-06T12:04:10;93198.94;;;7.96;46.10
33151;BME280;19508;42.578;23.416;2023-04-06T12:06:36;93196.53;;;7.51;45.37
33151;BME280;19508;42.578;23.416;2023-04-06T12:09:01;93191.38;;;8.20;44.11
33151;BME280;19508;42.578;23.416;2023-04-06T12:11:27;93186.78;;;8.15;45.16
33151;BME280;19508;42.578;23.416;2023-04-06T12:13:53;93183.91;;;8.22;43.45
33151;BME280;19508;42.578;23.416;2023-04-06T12:16:18;93193.94;;;8.05;44.33
33151;BME280;19508;42.578;23.416;2023-04-06T12:18:44;93190.63;;;7.98;44.31
33151;BME280;19508;42.578;23.416;2023-04-06T12:21:10;93189.63;;;8.31;44.90
33151;BME280;19508;42.578;23.416;2023-04-06T12:23:35;93193.47;;;8.40;43.90
33151;BME280;19508;42.578;23.416;2023-04-06T12:26:01;93191.44;;;8.25;43.15
33151;BME280;19508;42.578;23.416;2023-04-06T12:28:27;93188.06;;;7.86;44.36
33151;BME280;19508;42.578;23.416;2023-04-06T12:30:52;93180.25;;;10.38;41.50
33151;BME280;19508;42.578;23.416;2023-04-06T12:33:18;93186.81;;;11.68;37.17
33151;BME280;19508;42.578;23.416;2023-04-06T12:35:44;93187.50;;;10.93;37.66
33151;BME280;19508;42.578;23.416;2023-04-06T12:38:09;93193.03;;;9.95;39.09
33151;BME280;19508;42.578;23.416;2023-04-06T12:40:38;93178.53;;;10.06;39.81
33151;BME280;19508;42.578;23.416;2023-04-06T12:43:05;93187.81;;;9.58;40.05
33151;BME280;19508;42.578;23.416;2023-04-06T12:45:31;93188.88;;;9.62;40.76
33151;BME280;19508;42.578;23.416;2023-04-06T12:47:58;93183.16;;;9.43;41.79
33151;BME280;19508;42.578;23.416;2023-04-06T12:50:23;93178.75;;;8.80;42.91
33151;BME280;19508;42.578;23.416;2023-04-06T12:52:49;93181.47;;;8.20;43.54
33151;BME280;19508;42.578;23.416;2023-04-06T12:55:15;93170.69;;;8.42;43.71
33151;BME280;19508;42.578;23.416;2023-04-06T12:57:40;93172.97;;;8.56;44.37
33151;BME280;19508;42.578;23.416;2023-04-06T13:00:07;93168.34;;;8.88;44.01